Nettleham, United Kingdom
Current Conditions -  °F | °C
As of 12:50 AM on Saturday 29 Nov 2014 (Local Time) from EGXW Reporting Station
Haze Haze  
Wind Chill: 45°   Ceiling: 8000
Heat Index: 48°   Visibility: 2.5mi
Dew Point: 48°   Wind: 8mph
Humidity: 100%   Direction: 80°E
Pressure: 29.8"   Gusts: NA
Location:  53.27°N, 0.49°W
Report Text: EGXW 290050Z 08007KT 4000 BR BKN080 OVC110 09/09 Q1009 GRN
Loading
Personal Weather Stations






























Interactive Weather Map New forecast layout! Learn more

10-Day Weather Forecast

Advertisements
Track Severe Weather on mobile